Airfield :
LOGIN :

Register | Disclaimer

   EN    FR    IT 

 










Legend :    VFR   Marginal VFR   IFR   Intensive IFR   Very Intensive IFR
Visi :
Ceiling :
>= 8 km
>= 3000ft
5 to 8 km
1000 to 3000 ft
1500m to 5 km
500 to 1000 ft
800 to 1500m
200 to 500 ft
< 800m
< 200 ft
Symbols :   Thunderstorms  Fog  Heavy snow  Heavy precipitations  Wind > 20 kt
SIGMETs :     Misc.  Thunderstorms  Icing  Turbulence  Mountain Waves  Volcanic Ashes






- Airport Elevation : 138 ft
- IATA code : BIO


LEBB - Bilbao

CURRENT METAR :
  • 082230Z 26007KT 190V310 9999 SCT028 SCT035 BKN049 07/05 Q1016 TEMPO 3000 SHRA SCT030TCU

EXPIRED METARs :
  • 082200Z 24003KT 200V280 9999 FEW025 BKN032 BKN045 06/05 Q1016 TEMPO 3000 SHRA SCT030TCU
  • 082146Z 25003KT 200V290 5000 SHRA SCT028TCU BKN035 06/05 Q1016 NOSIG
  • 082130Z 26005KT 210V310 9999 FEW028 SCT035 BKN055 07/05 Q1015 TEMPO 3000 SHRA SCT030TCU
  • 082100Z 23006KT 200V260 9999 SCT030 BKN058 06/04 Q1015 TEMPO 3000 SHRA SCT030TCU
  • 082050Z 24006KT 200V290 9999 FEW025 SCT030 BKN050 07/04 Q1015 TEMPO 3000 SHRA SCT030TCU
  • 082030Z 29014G28KT 260V320 5000 RA FEW025 SCT030TCU 06/05 Q1016 NOSIG
  • 082019Z 23004KT 200V300 5000 SHRA FEW028 SCT038TCU 05/04 Q1015 NOSIG
  • 082000Z 23005KT 190V270 9999 SCT028 BKN040 05/04 Q1015 TEMPO 3000 SHRA SCT030TCU
  • 081946Z 22009KT 190V270 9999 SCT028 BKN040 05/04 Q1015 TEMPO 3000 SHRA SCT030TCU

TAF TAF LEBB
Valid from the 08 at 18:00 until the 09 at 18:00 UTC


081700Z 0818/0918 26009KT 9999 SCT020 BKN030 TX10/0911Z TN08/0908Z
TEMPO 0818/0904 27018G30KT
PROB40
TEMPO 0820/0904 32025G43KT
TEMPO 0818/0918 3000 RA SHRA BKN010 SCT030TCU
PROB40
TEMPO 0818/0905 1500 SHGR +SHRA TS SCT020CB



MET'MAP, your aeronautical weather chart ! - Copyright ORBIFLY December 2007 - Disclaimer

ORBIFLY MET'MAP TEAM :

Programming & Development : Alexandra Zaïnal
Concept & original design : Baudouin d'Aumeries
Assistance for programming : Marc-Olivier Méhu
Technical & hardware support : Manuel Goepfert

Contact : metmap@orbifly.com




SOURCES & CREDITS :

   NOAA